sensor_id;sensor_type;location;lat;lon;timestamp;P1;durP1;ratioP1;P2;durP2;ratioP2
66521;SDS011;53349;53.538;8.584;2022-12-07T00:00:52;9.53;;;4.20;;
66521;SDS011;53349;53.538;8.584;2022-12-07T00:03:17;11.07;;;3.88;;
66521;SDS011;53349;53.538;8.584;2022-12-07T00:05:43;9.50;;;3.30;;
66521;SDS011;53349;53.538;8.584;2022-12-07T00:08:08;10.33;;;3.37;;
66521;SDS011;53349;53.538;8.584;2022-12-07T00:10:34;7.47;;;2.80;;
66521;SDS011;53349;53.538;8.584;2022-12-07T00:12:59;9.05;;;2.40;;
66521;SDS011;53349;53.538;8.584;2022-12-07T00:15:24;8.67;;;2.10;;
66521;SDS011;53349;53.538;8.584;2022-12-07T00:17:50;7.63;;;1.50;;
66521;SDS011;53349;53.538;8.584;2022-12-07T00:20:15;7.23;;;0.80;;
66521;SDS011;53349;53.538;8.584;2022-12-07T00:22:41;4.53;;;0.87;;
66521;SDS011;53349;53.538;8.584;2022-12-07T00:25:06;4.88;;;0.63;;
66521;SDS011;53349;53.538;8.584;2022-12-07T00:27:32;2.90;;;0.60;;
66521;SDS011;53349;53.538;8.584;2022-12-07T00:29:57;4.07;;;0.50;;
66521;SDS011;53349;53.538;8.584;2022-12-07T00:32:22;3.00;;;0.43;;
66521;SDS011;53349;53.538;8.584;2022-12-07T00:34:47;4.03;;;0.40;;
66521;SDS011;53349;53.538;8.584;2022-12-07T00:37:13;3.70;;;0.43;;
66521;SDS011;53349;53.538;8.584;2022-12-07T00:39:38;2.85;;;0.45;;
66521;SDS011;53349;53.538;8.584;2022-12-07T00:42:04;2.13;;;0.35;;
66521;SDS011;53349;53.538;8.584;2022-12-07T00:44:29;3.00;;;0.53;;
66521;SDS011;53349;53.538;8.584;2022-12-07T00:46:54;4.73;;;0.40;;
66521;SDS011;53349;53.538;8.584;2022-12-07T00:49:20;3.53;;;0.60;;
66521;SDS011;53349;53.538;8.584;2022-12-07T00:51:48;4.28;;;0.30;;
66521;SDS011;53349;53.538;8.584;2022-12-07T00:54:13;1.52;;;0.50;;
66521;SDS011;53349;53.538;8.584;2022-12-07T00:56:39;5.73;;;0.50;;
66521;SDS011;53349;53.538;8.584;2022-12-07T00:59:04;3.97;;;0.47;;
66521;SDS011;53349;53.538;8.584;2022-12-07T01:01:34;5.45;;;0.70;;
66521;SDS011;53349;53.538;8.584;2022-12-07T01:04:01;3.50;;;0.40;;
66521;SDS011;53349;53.538;8.584;2022-12-07T01:06:27;4.00;;;0.60;;
66521;SDS011;53349;53.538;8.584;2022-12-07T01:08:53;3.50;;;0.55;;
66521;SDS011;53349;53.538;8.584;2022-12-07T01:11:21;4.17;;;0.60;;
66521;SDS011;53349;53.538;8.584;2022-12-07T01:13:49;2.67;;;0.50;;
66521;SDS011;53349;53.538;8.584;2022-12-07T01:16:16;2.70;;;0.50;;
66521;SDS011;53349;53.538;8.584;2022-12-07T01:18:42;4.82;;;0.65;;
66521;SDS011;53349;53.538;8.584;2022-12-07T01:21:13;3.72;;;0.57;;
66521;SDS011;53349;53.538;8.584;2022-12-07T01:23:40;4.30;;;0.70;;
66521;SDS011;53349;53.538;8.584;2022-12-07T01:26:07;3.17;;;0.40;;
66521;SDS011;53349;53.538;8.584;2022-12-07T01:28:35;4.25;;;0.90;;
66521;SDS011;53349;53.538;8.584;2022-12-07T01:31:02;3.43;;;0.57;;
66521;SDS011;53349;53.538;8.584;2022-12-07T01:33:30;3.80;;;0.82;;
66521;SDS011;53349;53.538;8.584;2022-12-07T01:36:04;6.05;;;0.88;;
66521;SDS011;53349;53.538;8.584;2022-12-07T01:38:31;4.63;;;0.90;;
66521;SDS011;53349;53.538;8.584;2022-12-07T01:40:57;5.88;;;0.75;;
66521;SDS011;53349;53.538;8.584;2022-12-07T01:43:23;4.60;;;0.82;;
66521;SDS011;53349;53.538;8.584;2022-12-07T01:45:51;4.85;;;1.27;;
66521;SDS011;53349;53.538;8.584;2022-12-07T01:48:17;3.50;;;1.10;;
66521;SDS011;53349;53.538;8.584;2022-12-07T01:50:47;6.15;;;1.70;;
66521;SDS011;53349;53.538;8.584;2022-12-07T01:53:15;4.72;;;1.50;;
66521;SDS011;53349;53.538;8.584;2022-12-07T01:55:44;4.37;;;1.00;;
66521;SDS011;53349;53.538;8.584;2022-12-07T01:58:12;4.32;;;1.10;;
66521;SDS011;53349;53.538;8.584;2022-12-07T02:00:39;6.80;;;1.33;;
66521;SDS011;53349;53.538;8.584;2022-12-07T02:05:38;6.45;;;1.00;;
66521;SDS011;53349;53.538;8.584;2022-12-07T02:08:06;4.23;;;0.83;;
66521;SDS011;53349;53.538;8.584;2022-12-07T02:10:32;3.47;;;0.98;;
66521;SDS011;53349;53.538;8.584;2022-12-07T02:13:09;6.20;;;1.15;;
66521;SDS011;53349;53.538;8.584;2022-12-07T02:18:14;4.17;;;0.80;;
66521;SDS011;53349;53.538;8.584;2022-12-07T02:20:49;7.60;;;1.10;;
66521;SDS011;53349;53.538;8.584;2022-12-07T02:26:37;3.40;;;0.90;;
66521;SDS011;53349;53.538;8.584;2022-12-07T02:29:40;4.05;;;1.25;;
66521;SDS011;53349;53.538;8.584;2022-12-07T02:33:13;3.50;;;1.10;;
66521;SDS011;53349;53.538;8.584;2022-12-07T02:35:44;3.42;;;1.33;;
66521;SDS011;53349;53.538;8.584;2022-12-07T02:38:16;4.97;;;0.82;;
66521;SDS011;53349;53.538;8.584;2022-12-07T02:40:59;2.92;;;0.45;;
66521;SDS011;53349;53.538;8.584;2022-12-07T02:43:31;2.55;;;0.60;;
66521;SDS011;53349;53.538;8.584;2022-12-07T02:46:02;2.57;;;0.70;;
66521;SDS011;53349;53.538;8.584;2022-12-07T02:48:31;5.38;;;0.63;;
66521;SDS011;53349;53.538;8.584;2022-12-07T02:50:58;3.35;;;0.57;;
66521;SDS011;53349;53.538;8.584;2022-12-07T02:56:12;2.17;;;0.20;;
66521;SDS011;53349;53.538;8.584;2022-12-07T03:04:52;2.28;;;0.20;;
66521;SDS011;53349;53.538;8.584;2022-12-07T03:07:50;9.45;;;0.40;;
66521;SDS011;53349;53.538;8.584;2022-12-07T03:13:23;1.55;;;0.20;;
66521;SDS011;53349;53.538;8.584;2022-12-07T03:16:57;1.67;;;0.27;;
66521;SDS011;53349;53.538;8.584;2022-12-07T03:18:57;1.10;;;0.20;;
66521;SDS011;53349;53.538;8.584;2022-12-07T03:21:36;1.52;;;0.20;;
66521;SDS011;53349;53.538;8.584;2022-12-07T03:24:07;1.92;;;0.20;;
66521;SDS011;53349;53.538;8.584;2022-12-07T03:26:41;1.23;;;0.30;;
66521;SDS011;53349;53.538;8.584;2022-12-07T03:29:16;2.53;;;0.30;;
66521;SDS011;53349;53.538;8.584;2022-12-07T03:31:55;0.93;;;0.20;;
66521;SDS011;53349;53.538;8.584;2022-12-07T03:34:31;0.82;;;0.13;;
66521;SDS011;53349;53.538;8.584;2022-12-07T03:37:03;1.73;;;0.20;;
66521;SDS011;53349;53.538;8.584;2022-12-07T03:42:15;2.13;;;0.30;;
66521;SDS011;53349;53.538;8.584;2022-12-07T03:44:40;1.45;;;0.40;;
66521;SDS011;53349;53.538;8.584;2022-12-07T03:49:47;1.10;;;0.20;;
66521;SDS011;53349;53.538;8.584;2022-12-07T03:55:20;2.22;;;0.55;;
66521;SDS011;53349;53.538;8.584;2022-12-07T03:57:49;2.58;;;0.50;;
66521;SDS011;53349;53.538;8.584;2022-12-07T04:00:18;1.90;;;0.50;;
66521;SDS011;53349;53.538;8.584;2022-12-07T04:02:44;4.67;;;0.60;;
66521;SDS011;53349;53.538;8.584;2022-12-07T04:05:09;2.10;;;0.50;;
66521;SDS011;53349;53.538;8.584;2022-12-07T04:07:35;3.13;;;0.80;;
66521;SDS011;53349;53.538;8.584;2022-12-07T04:10:01;5.43;;;0.50;;
66521;SDS011;53349;53.538;8.584;2022-12-07T04:12:26;3.35;;;0.30;;
66521;SDS011;53349;53.538;8.584;2022-12-07T04:14:52;2.50;;;0.23;;
66521;SDS011;53349;53.538;8.584;2022-12-07T04:17:17;2.37;;;0.30;;
66521;SDS011;53349;53.538;8.584;2022-12-07T04:19:42;3.67;;;0.30;;
66521;SDS011;53349;53.538;8.584;2022-12-07T04:22:08;2.40;;;0.30;;
66521;SDS011;53349;53.538;8.584;2022-12-07T04:24:33;1.80;;;0.43;;
66521;SDS011;53349;53.538;8.584;2022-12-07T04:26:59;3.08;;;0.50;;
66521;SDS011;53349;53.538;8.584;2022-12-07T04:29:25;3.63;;;0.40;;
66521;SDS011;53349;53.538;8.584;2022-12-07T04:31:51;2.90;;;0.50;;
66521;SDS011;53349;53.538;8.584;2022-12-07T04:34:16;4.00;;;0.70;;
66521;SDS011;53349;53.538;8.584;2022-12-07T04:36:43;4.05;;;0.70;;
66521;SDS011;53349;53.538;8.584;2022-12-07T04:39:23;1.92;;;0.60;;
66521;SDS011;53349;53.538;8.584;2022-12-07T04:41:50;2.38;;;0.47;;
66521;SDS011;53349;53.538;8.584;2022-12-07T04:44:16;3.23;;;0.57;;
66521;SDS011;53349;53.538;8.584;2022-12-07T04:46:43;4.32;;;0.52;;
66521;SDS011;53349;53.538;8.584;2022-12-07T04:49:09;2.17;;;0.45;;
66521;SDS011;53349;53.538;8.584;2022-12-07T04:51:35;2.08;;;0.30;;
66521;SDS011;53349;53.538;8.584;2022-12-07T04:54:00;3.00;;;0.67;;
66521;SDS011;53349;53.538;8.584;2022-12-07T04:56:26;1.77;;;0.40;;
66521;SDS011;53349;53.538;8.584;2022-12-07T04:58:52;2.30;;;0.30;;
66521;SDS011;53349;53.538;8.584;2022-12-07T05:01:19;2.60;;;0.40;;
66521;SDS011;53349;53.538;8.584;2022-12-07T05:03:46;2.38;;;0.40;;
66521;SDS011;53349;53.538;8.584;2022-12-07T05:06:11;0.70;;;0.20;;
66521;SDS011;53349;53.538;8.584;2022-12-07T05:08:38;2.10;;;0.20;;
66521;SDS011;53349;53.538;8.584;2022-12-07T05:11:03;0.93;;;0.10;;
66521;SDS011;53349;53.538;8.584;2022-12-07T05:13:30;2.20;;;0.20;;
66521;SDS011;53349;53.538;8.584;2022-12-07T05:15:56;1.65;;;0.10;;
66521;SDS011;53349;53.538;8.584;2022-12-07T05:18:22;2.10;;;0.33;;
66521;SDS011;53349;53.538;8.584;2022-12-07T05:20:48;1.47;;;0.50;;
66521;SDS011;53349;53.538;8.584;2022-12-07T05:23:14;2.70;;;0.60;;
66521;SDS011;53349;53.538;8.584;2022-12-07T05:25:39;2.30;;;0.60;;
66521;SDS011;53349;53.538;8.584;2022-12-07T05:28:05;3.58;;;0.70;;
66521;SDS011;53349;53.538;8.584;2022-12-07T05:30:31;5.60;;;0.57;;
66521;SDS011;53349;53.538;8.584;2022-12-07T05:32:57;2.92;;;0.40;;
66521;SDS011;53349;53.538;8.584;2022-12-07T05:35:22;3.43;;;0.50;;
66521;SDS011;53349;53.538;8.584;2022-12-07T05:37:48;2.88;;;0.32;;
66521;SDS011;53349;53.538;8.584;2022-12-07T05:40:14;3.13;;;0.43;;
66521;SDS011;53349;53.538;8.584;2022-12-07T05:42:40;5.20;;;0.53;;
66521;SDS011;53349;53.538;8.584;2022-12-07T05:45:06;3.10;;;0.40;;
66521;SDS011;53349;53.538;8.584;2022-12-07T05:47:32;3.55;;;0.40;;
66521;SDS011;53349;53.538;8.584;2022-12-07T05:49:57;1.43;;;0.30;;
66521;SDS011;53349;53.538;8.584;2022-12-07T05:52:23;3.60;;;0.50;;
66521;SDS011;53349;53.538;8.584;2022-12-07T05:54:49;2.83;;;0.50;;
66521;SDS011;53349;53.538;8.584;2022-12-07T05:57:14;3.60;;;0.30;;
66521;SDS011;53349;53.538;8.584;2022-12-07T05:59:39;5.40;;;0.50;;
66521;SDS011;53349;53.538;8.584;2022-12-07T06:02:06;7.35;;;0.60;;
66521;SDS011;53349;53.538;8.584;2022-12-07T06:04:34;2.75;;;0.30;;
66521;SDS011;53349;53.538;8.584;2022-12-07T06:07:02;1.77;;;0.32;;
66521;SDS011;53349;53.538;8.584;2022-12-07T06:09:28;6.43;;;0.60;;
66521;SDS011;53349;53.538;8.584;2022-12-07T06:11:54;2.95;;;0.63;;
66521;SDS011;53349;53.538;8.584;2022-12-07T06:14:39;5.10;;;0.70;;
66521;SDS011;53349;53.538;8.584;2022-12-07T06:17:04;5.43;;;0.50;;
66521;SDS011;53349;53.538;8.584;2022-12-07T06:19:30;4.20;;;0.40;;
66521;SDS011;53349;53.538;8.584;2022-12-07T06:21:56;9.00;;;0.50;;
66521;SDS011;53349;53.538;8.584;2022-12-07T06:24:22;8.33;;;0.60;;
66521;SDS011;53349;53.538;8.584;2022-12-07T06:26:47;3.38;;;0.50;;
66521;SDS011;53349;53.538;8.584;2022-12-07T06:29:13;5.43;;;0.57;;
66521;SDS011;53349;53.538;8.584;2022-12-07T06:31:41;5.47;;;0.73;;
66521;SDS011;53349;53.538;8.584;2022-12-07T06:34:09;6.32;;;0.65;;
66521;SDS011;53349;53.538;8.584;2022-12-07T06:36:36;6.90;;;0.98;;
66521;SDS011;53349;53.538;8.584;2022-12-07T06:39:02;4.67;;;0.83;;
66521;SDS011;53349;53.538;8.584;2022-12-07T06:41:28;4.15;;;0.63;;
66521;SDS011;53349;53.538;8.584;2022-12-07T06:43:53;3.97;;;0.90;;
66521;SDS011;53349;53.538;8.584;2022-12-07T06:46:21;2.73;;;0.60;;
66521;SDS011;53349;53.538;8.584;2022-12-07T06:48:46;5.10;;;0.57;;
66521;SDS011;53349;53.538;8.584;2022-12-07T06:51:12;5.28;;;0.55;;
66521;SDS011;53349;53.538;8.584;2022-12-07T06:53:40;2.07;;;0.40;;
66521;SDS011;53349;53.538;8.584;2022-12-07T06:56:05;5.18;;;0.80;;
66521;SDS011;53349;53.538;8.584;2022-12-07T06:58:30;5.13;;;0.63;;
66521;SDS011;53349;53.538;8.584;2022-12-07T07:00:56;3.70;;;0.70;;
66521;SDS011;53349;53.538;8.584;2022-12-07T07:03:22;3.43;;;0.60;;
66521;SDS011;53349;53.538;8.584;2022-12-07T07:05:47;4.90;;;0.70;;
66521;SDS011;53349;53.538;8.584;2022-12-07T07:08:13;5.43;;;0.73;;
66521;SDS011;53349;53.538;8.584;2022-12-07T07:10:39;2.20;;;0.60;;
66521;SDS011;53349;53.538;8.584;2022-12-07T07:13:05;3.13;;;0.50;;
66521;SDS011;53349;53.538;8.584;2022-12-07T07:15:31;2.30;;;0.30;;
66521;SDS011;53349;53.538;8.584;2022-12-07T07:17:57;1.77;;;0.27;;
66521;SDS011;53349;53.538;8.584;2022-12-07T07:20:22;5.20;;;0.50;;
66521;SDS011;53349;53.538;8.584;2022-12-07T07:22:48;3.70;;;0.40;;
66521;SDS011;53349;53.538;8.584;2022-12-07T07:25:14;7.73;;;0.50;;
66521;SDS011;53349;53.538;8.584;2022-12-07T07:27:40;5.47;;;0.70;;
66521;SDS011;53349;53.538;8.584;2022-12-07T07:30:06;3.00;;;0.73;;
66521;SDS011;53349;53.538;8.584;2022-12-07T07:32:32;4.53;;;0.47;;
66521;SDS011;53349;53.538;8.584;2022-12-07T07:34:57;3.30;;;0.47;;
66521;SDS011;53349;53.538;8.584;2022-12-07T07:37:23;4.20;;;0.63;;
66521;SDS011;53349;53.538;8.584;2022-12-07T07:39:48;3.90;;;0.30;;
66521;SDS011;53349;53.538;8.584;2022-12-07T07:42:13;6.87;;;0.40;;
66521;SDS011;53349;53.538;8.584;2022-12-07T07:44:39;4.72;;;0.57;;
66521;SDS011;53349;53.538;8.584;2022-12-07T07:47:05;5.57;;;0.50;;
66521;SDS011;53349;53.538;8.584;2022-12-07T07:49:30;2.77;;;0.40;;
66521;SDS011;53349;53.538;8.584;2022-12-07T07:51:55;4.93;;;0.50;;
66521;SDS011;53349;53.538;8.584;2022-12-07T07:54:21;5.00;;;0.53;;
66521;SDS011;53349;53.538;8.584;2022-12-07T07:56:46;3.70;;;0.50;;
66521;SDS011;53349;53.538;8.584;2022-12-07T07:59:12;2.07;;;0.50;;
66521;SDS011;53349;53.538;8.584;2022-12-07T08:01:37;7.77;;;1.00;;
66521;SDS011;53349;53.538;8.584;2022-12-07T08:04:02;5.90;;;1.00;;
66521;SDS011;53349;53.538;8.584;2022-12-07T08:06:28;4.33;;;0.83;;
66521;SDS011;53349;53.538;8.584;2022-12-07T08:08:53;4.60;;;0.80;;
66521;SDS011;53349;53.538;8.584;2022-12-07T08:11:19;1.97;;;0.50;;
66521;SDS011;53349;53.538;8.584;2022-12-07T08:13:45;1.70;;;0.40;;
66521;SDS011;53349;53.538;8.584;2022-12-07T08:16:14;3.83;;;0.50;;
66521;SDS011;53349;53.538;8.584;2022-12-07T08:18:40;3.83;;;0.45;;
66521;SDS011;53349;53.538;8.584;2022-12-07T08:21:06;4.53;;;0.40;;
66521;SDS011;53349;53.538;8.584;2022-12-07T08:23:36;4.90;;;0.43;;
66521;SDS011;53349;53.538;8.584;2022-12-07T08:26:02;2.07;;;0.30;;
66521;SDS011;53349;53.538;8.584;2022-12-07T08:28:30;4.10;;;0.30;;
66521;SDS011;53349;53.538;8.584;2022-12-07T08:31:01;3.65;;;0.30;;
66521;SDS011;53349;53.538;8.584;2022-12-07T08:33:27;2.65;;;0.30;;
66521;SDS011;53349;53.538;8.584;2022-12-07T08:35:53;0.90;;;0.17;;
66521;SDS011;53349;53.538;8.584;2022-12-07T08:38:19;3.33;;;0.30;;
66521;SDS011;53349;53.538;8.584;2022-12-07T08:40:44;4.80;;;0.70;;
66521;SDS011;53349;53.538;8.584;2022-12-07T08:43:10;2.77;;;0.30;;
66521;SDS011;53349;53.538;8.584;2022-12-07T08:45:35;2.33;;;0.30;;
66521;SDS011;53349;53.538;8.584;2022-12-07T08:48:06;5.88;;;0.47;;
66521;SDS011;53349;53.538;8.584;2022-12-07T08:50:35;3.87;;;0.60;;
66521;SDS011;53349;53.538;8.584;2022-12-07T08:53:03;2.67;;;0.65;;
66521;SDS011;53349;53.538;8.584;2022-12-07T08:55:30;3.05;;;0.40;;
66521;SDS011;53349;53.538;8.584;2022-12-07T08:57:57;2.50;;;0.40;;
66521;SDS011;53349;53.538;8.584;2022-12-07T09:00:24;2.58;;;0.40;;
66521;SDS011;53349;53.538;8.584;2022-12-07T09:02:50;2.53;;;0.40;;
66521;SDS011;53349;53.538;8.584;2022-12-07T09:05:16;4.15;;;0.55;;
66521;SDS011;53349;53.538;8.584;2022-12-07T09:07:42;2.23;;;0.40;;
66521;SDS011;53349;53.538;8.584;2022-12-07T09:10:09;5.38;;;0.40;;
66521;SDS011;53349;53.538;8.584;2022-12-07T09:12:35;4.97;;;0.50;;
66521;SDS011;53349;53.538;8.584;2022-12-07T09:15:00;3.57;;;0.87;;
66521;SDS011;53349;53.538;8.584;2022-12-07T09:17:26;3.20;;;0.50;;
66521;SDS011;53349;53.538;8.584;2022-12-07T09:19:52;4.73;;;0.77;;
66521;SDS011;53349;53.538;8.584;2022-12-07T09:22:17;3.27;;;0.50;;
66521;SDS011;53349;53.538;8.584;2022-12-07T09:24:43;2.65;;;0.35;;
66521;SDS011;53349;53.538;8.584;2022-12-07T09:27:11;4.25;;;0.60;;
66521;SDS011;53349;53.538;8.584;2022-12-07T09:29:37;2.23;;;0.60;;
66521;SDS011;53349;53.538;8.584;2022-12-07T09:32:02;4.57;;;0.88;;
66521;SDS011;53349;53.538;8.584;2022-12-07T09:34:30;5.83;;;0.80;;
66521;SDS011;53349;53.538;8.584;2022-12-07T09:36:56;3.72;;;0.70;;
66521;SDS011;53349;53.538;8.584;2022-12-07T09:39:21;4.60;;;1.13;;
66521;SDS011;53349;53.538;8.584;2022-12-07T09:41:47;4.37;;;1.30;;
66521;SDS011;53349;53.538;8.584;2022-12-07T09:44:13;4.50;;;1.50;;
66521;SDS011;53349;53.538;8.584;2022-12-07T09:46:42;5.13;;;1.10;;
66521;SDS011;53349;53.538;8.584;2022-12-07T09:49:10;5.25;;;1.00;;
66521;SDS011;53349;53.538;8.584;2022-12-07T09:51:37;5.00;;;1.38;;
66521;SDS011;53349;53.538;8.584;2022-12-07T09:54:02;3.87;;;1.43;;
66521;SDS011;53349;53.538;8.584;2022-12-07T09:56:29;5.03;;;1.40;;
66521;SDS011;53349;53.538;8.584;2022-12-07T09:58:59;9.00;;;1.40;;
66521;SDS011;53349;53.538;8.584;2022-12-07T10:01:28;5.25;;;1.02;;
66521;SDS011;53349;53.538;8.584;2022-12-07T10:04:15;4.32;;;0.90;;
66521;SDS011;53349;53.538;8.584;2022-12-07T10:06:44;3.73;;;0.70;;
66521;SDS011;53349;53.538;8.584;2022-12-07T10:09:14;3.28;;;0.40;;
66521;SDS011;53349;53.538;8.584;2022-12-07T10:14:31;4.40;;;0.70;;
66521;SDS011;53349;53.538;8.584;2022-12-07T10:16:58;5.03;;;1.17;;
66521;SDS011;53349;53.538;8.584;2022-12-07T10:19:26;5.40;;;1.33;;
66521;SDS011;53349;53.538;8.584;2022-12-07T10:24:48;5.97;;;1.00;;
66521;SDS011;53349;53.538;8.584;2022-12-07T10:29:48;5.75;;;2.47;;
66521;SDS011;53349;53.538;8.584;2022-12-07T10:34:40;8.40;;;4.37;;
66521;SDS011;53349;53.538;8.584;2022-12-07T10:37:13;12.50;;;5.78;;
66521;SDS011;53349;53.538;8.584;2022-12-07T10:39:56;6.30;;;3.30;;
66521;SDS011;53349;53.538;8.584;2022-12-07T10:42:26;8.90;;;2.50;;
66521;SDS011;53349;53.538;8.584;2022-12-07T10:53:35;7.43;;;2.77;;
66521;SDS011;53349;53.538;8.584;2022-12-07T11:01:48;6.47;;;1.30;;
66521;SDS011;53349;53.538;8.584;2022-12-07T11:04:35;4.32;;;1.50;;
66521;SDS011;53349;53.538;8.584;2022-12-07T11:07:15;5.60;;;1.10;;
66521;SDS011;53349;53.538;8.584;2022-12-07T11:10:08;4.72;;;1.40;;
66521;SDS011;53349;53.538;8.584;2022-12-07T11:13:03;7.68;;;2.55;;
66521;SDS011;53349;53.538;8.584;2022-12-07T11:23:48;6.25;;;1.50;;
66521;SDS011;53349;53.538;8.584;2022-12-07T11:34:42;4.53;;;1.30;;
66521;SDS011;53349;53.538;8.584;2022-12-07T11:37:18;6.32;;;1.80;;
66521;SDS011;53349;53.538;8.584;2022-12-07T11:39:56;6.55;;;0.80;;
66521;SDS011;53349;53.538;8.584;2022-12-07T11:42:27;7.07;;;0.70;;
66521;SDS011;53349;53.538;8.584;2022-12-07T11:45:10;5.50;;;0.75;;
66521;SDS011;53349;53.538;8.584;2022-12-07T11:50:44;4.43;;;0.60;;
66521;SDS011;53349;53.538;8.584;2022-12-07T11:53:18;4.85;;;0.70;;
66521;SDS011;53349;53.538;8.584;2022-12-07T11:55:57;3.35;;;0.82;;
66521;SDS011;53349;53.538;8.584;2022-12-07T12:04:13;3.70;;;0.50;;
66521;SDS011;53349;53.538;8.584;2022-12-07T12:06:48;3.35;;;0.60;;
66521;SDS011;53349;53.538;8.584;2022-12-07T12:09:18;3.47;;;0.60;;
66521;SDS011;53349;53.538;8.584;2022-12-07T12:17:17;4.50;;;0.70;;
66521;SDS011;53349;53.538;8.584;2022-12-07T12:23:23;6.10;;;0.85;;
66521;SDS011;53349;53.538;8.584;2022-12-07T12:26:03;5.53;;;0.90;;
66521;SDS011;53349;53.538;8.584;2022-12-07T12:28:41;8.13;;;0.80;;
66521;SDS011;53349;53.538;8.584;2022-12-07T12:31:15;4.80;;;0.63;;
66521;SDS011;53349;53.538;8.584;2022-12-07T12:34:00;7.40;;;0.70;;
66521;SDS011;53349;53.538;8.584;2022-12-07T12:53:00;6.65;;;0.82;;
66521;SDS011;53349;53.538;8.584;2022-12-07T12:58:28;3.30;;;0.87;;
66521;SDS011;53349;53.538;8.584;2022-12-07T13:03:56;4.82;;;0.70;;
66521;SDS011;53349;53.538;8.584;2022-12-07T13:08:52;2.38;;;0.40;;
66521;SDS011;53349;53.538;8.584;2022-12-07T13:11:26;2.67;;;0.40;;
66521;SDS011;53349;53.538;8.584;2022-12-07T13:19:57;3.75;;;0.60;;
66521;SDS011;53349;53.538;8.584;2022-12-07T13:24:56;2.83;;;0.40;;
66521;SDS011;53349;53.538;8.584;2022-12-07T13:27:30;2.40;;;0.45;;
66521;SDS011;53349;53.538;8.584;2022-12-07T13:29:57;2.17;;;0.50;;
66521;SDS011;53349;53.538;8.584;2022-12-07T13:32:24;5.72;;;1.00;;
66521;SDS011;53349;53.538;8.584;2022-12-07T13:34:51;6.70;;;0.73;;
66521;SDS011;53349;53.538;8.584;2022-12-07T13:39:59;4.40;;;0.52;;
66521;SDS011;53349;53.538;8.584;2022-12-07T13:42:27;4.53;;;0.70;;
66521;SDS011;53349;53.538;8.584;2022-12-07T13:44:54;6.80;;;0.68;;
66521;SDS011;53349;53.538;8.584;2022-12-07T13:47:39;3.90;;;0.93;;
66521;SDS011;53349;53.538;8.584;2022-12-07T13:50:31;3.65;;;0.55;;
66521;SDS011;53349;53.538;8.584;2022-12-07T13:53:07;4.03;;;0.85;;
66521;SDS011;53349;53.538;8.584;2022-12-07T13:55:37;3.37;;;0.40;;
66521;SDS011;53349;53.538;8.584;2022-12-07T13:58:10;4.55;;;0.60;;
66521;SDS011;53349;53.538;8.584;2022-12-07T14:00:35;4.07;;;0.98;;
66521;SDS011;53349;53.538;8.584;2022-12-07T14:03:02;5.07;;;0.90;;
66521;SDS011;53349;53.538;8.584;2022-12-07T14:05:46;3.00;;;0.85;;
66521;SDS011;53349;53.538;8.584;2022-12-07T14:16:04;6.03;;;1.07;;
66521;SDS011;53349;53.538;8.584;2022-12-07T14:18:44;4.68;;;0.90;;
66521;SDS011;53349;53.538;8.584;2022-12-07T14:23:38;7.43;;;1.53;;
66521;SDS011;53349;53.538;8.584;2022-12-07T14:26:11;6.93;;;1.55;;
66521;SDS011;53349;53.538;8.584;2022-12-07T14:28:38;6.53;;;0.90;;
66521;SDS011;53349;53.538;8.584;2022-12-07T14:31:10;4.43;;;0.65;;
66521;SDS011;53349;53.538;8.584;2022-12-07T14:33:37;2.87;;;0.50;;
66521;SDS011;53349;53.538;8.584;2022-12-07T14:36:03;3.13;;;0.60;;
66521;SDS011;53349;53.538;8.584;2022-12-07T14:38:29;3.45;;;0.75;;
66521;SDS011;53349;53.538;8.584;2022-12-07T14:40:54;6.23;;;0.97;;
66521;SDS011;53349;53.538;8.584;2022-12-07T14:43:41;4.13;;;0.70;;
66521;SDS011;53349;53.538;8.584;2022-12-07T14:46:06;8.13;;;1.00;;
66521;SDS011;53349;53.538;8.584;2022-12-07T14:48:32;5.17;;;0.93;;
66521;SDS011;53349;53.538;8.584;2022-12-07T14:50:58;6.28;;;0.57;;
66521;SDS011;53349;53.538;8.584;2022-12-07T14:53:25;4.70;;;0.53;;
66521;SDS011;53349;53.538;8.584;2022-12-07T14:55:55;4.28;;;0.50;;
66521;SDS011;53349;53.538;8.584;2022-12-07T14:58:20;4.87;;;0.67;;
66521;SDS011;53349;53.538;8.584;2022-12-07T15:00:47;3.55;;;0.40;;
66521;SDS011;53349;53.538;8.584;2022-12-07T15:03:13;5.50;;;1.00;;
66521;SDS011;53349;53.538;8.584;2022-12-07T15:05:39;4.95;;;0.50;;
66521;SDS011;53349;53.538;8.584;2022-12-07T15:08:05;3.65;;;0.55;;
66521;SDS011;53349;53.538;8.584;2022-12-07T15:10:31;5.53;;;0.73;;
66521;SDS011;53349;53.538;8.584;2022-12-07T15:13:00;5.05;;;0.95;;
66521;SDS011;53349;53.538;8.584;2022-12-07T15:15:47;4.65;;;0.80;;
66521;SDS011;53349;53.538;8.584;2022-12-07T15:18:13;5.80;;;0.80;;
66521;SDS011;53349;53.538;8.584;2022-12-07T15:20:38;6.13;;;0.83;;
66521;SDS011;53349;53.538;8.584;2022-12-07T15:23:04;4.07;;;0.80;;
66521;SDS011;53349;53.538;8.584;2022-12-07T15:25:29;4.07;;;0.90;;
66521;SDS011;53349;53.538;8.584;2022-12-07T15:27:55;5.88;;;0.77;;
66521;SDS011;53349;53.538;8.584;2022-12-07T15:30:20;6.53;;;1.33;;
66521;SDS011;53349;53.538;8.584;2022-12-07T15:32:48;6.63;;;0.83;;
66521;SDS011;53349;53.538;8.584;2022-12-07T15:35:15;6.47;;;0.70;;
66521;SDS011;53349;53.538;8.584;2022-12-07T15:37:40;9.43;;;1.37;;
66521;SDS011;53349;53.538;8.584;2022-12-07T15:40:06;6.57;;;1.40;;
66521;SDS011;53349;53.538;8.584;2022-12-07T15:42:32;6.18;;;1.60;;
66521;SDS011;53349;53.538;8.584;2022-12-07T15:44:57;5.57;;;1.50;;
66521;SDS011;53349;53.538;8.584;2022-12-07T15:47:29;8.38;;;1.80;;
66521;SDS011;53349;53.538;8.584;2022-12-07T15:49:58;8.70;;;1.63;;
66521;SDS011;53349;53.538;8.584;2022-12-07T15:52:25;5.15;;;1.20;;
66521;SDS011;53349;53.538;8.584;2022-12-07T15:54:50;4.90;;;1.10;;
66521;SDS011;53349;53.538;8.584;2022-12-07T15:57:16;4.63;;;1.17;;
66521;SDS011;53349;53.538;8.584;2022-12-07T15:59:41;5.82;;;1.42;;
66521;SDS011;53349;53.538;8.584;2022-12-07T16:02:10;5.53;;;1.17;;
66521;SDS011;53349;53.538;8.584;2022-12-07T16:04:36;6.43;;;1.50;;
66521;SDS011;53349;53.538;8.584;2022-12-07T16:07:04;4.33;;;0.93;;
66521;SDS011;53349;53.538;8.584;2022-12-07T16:09:33;4.22;;;1.08;;
66521;SDS011;53349;53.538;8.584;2022-12-07T16:11:58;5.80;;;1.20;;
66521;SDS011;53349;53.538;8.584;2022-12-07T16:14:24;4.32;;;1.17;;
66521;SDS011;53349;53.538;8.584;2022-12-07T16:16:49;4.90;;;1.50;;
66521;SDS011;53349;53.538;8.584;2022-12-07T16:19:15;7.57;;;1.63;;
66521;SDS011;53349;53.538;8.584;2022-12-07T16:21:40;8.10;;;2.43;;
66521;SDS011;53349;53.538;8.584;2022-12-07T16:24:06;5.03;;;1.52;;
66521;SDS011;53349;53.538;8.584;2022-12-07T16:26:32;7.10;;;1.80;;
66521;SDS011;53349;53.538;8.584;2022-12-07T16:28:58;7.05;;;3.00;;
66521;SDS011;53349;53.538;8.584;2022-12-07T16:31:24;7.67;;;2.70;;
66521;SDS011;53349;53.538;8.584;2022-12-07T16:33:52;5.22;;;1.80;;
66521;SDS011;53349;53.538;8.584;2022-12-07T16:36:19;8.15;;;1.90;;
66521;SDS011;53349;53.538;8.584;2022-12-07T16:38:47;8.10;;;3.13;;
66521;SDS011;53349;53.538;8.584;2022-12-07T16:41:13;10.70;;;4.60;;
66521;SDS011;53349;53.538;8.584;2022-12-07T16:43:39;12.00;;;5.20;;
66521;SDS011;53349;53.538;8.584;2022-12-07T16:46:05;11.85;;;4.57;;
66521;SDS011;53349;53.538;8.584;2022-12-07T16:48:31;9.50;;;4.90;;
66521;SDS011;53349;53.538;8.584;2022-12-07T16:51:04;9.25;;;4.57;;
66521;SDS011;53349;53.538;8.584;2022-12-07T16:53:31;11.57;;;4.72;;
66521;SDS011;53349;53.538;8.584;2022-12-07T16:55:56;7.83;;;2.57;;
66521;SDS011;53349;53.538;8.584;2022-12-07T16:58:25;7.43;;;2.42;;
66521;SDS011;53349;53.538;8.584;2022-12-07T17:00:50;7.73;;;2.47;;
66521;SDS011;53349;53.538;8.584;2022-12-07T17:03:16;10.63;;;3.53;;
66521;SDS011;53349;53.538;8.584;2022-12-07T17:05:42;7.40;;;3.15;;
66521;SDS011;53349;53.538;8.584;2022-12-07T17:08:08;7.18;;;2.17;;
66521;SDS011;53349;53.538;8.584;2022-12-07T17:10:36;7.10;;;1.30;;